Latest Weather Observations for Falls Creek

IDV60801

Issued at 8:52 am EST Monday 19 April 2021 (issued every 10 minutes, with the page automatically refreshed every 10 minutes)

About weather observations | Map of weather stations | Latest weather observations for VIC | Other Formats
Station Details ID: 083084 Name: FALLS CREEK Lat: -36.87 Lon: 147.28 Height: 1765.0 m
Data from the previous 72 hours. | See also: Recent months at Falls Creek
Date/Time
EST
Temp
°C
App
Temp
°C
Dew
Point
°C
Rel
Hum
%
Delta-T
°C
Wind Press
QNH
hPa
Press
MSL
hPa
Rain since
9am
mm
Dir  Spd
km/h
Gust
km/h
Spd
kts
Gust
kts
19/08:30am 4.1 -0.8 2.0 86 0.9 NNW 17 26 9 14 1019.5 1016.4 0.2
19/08:00am 4.0 -0.6 1.4 83 1.1 NW 15 26 8 14 1019.5 1016.4 0.2
19/07:30am 3.4 -1.8 -0.2 77 1.5 NW 17 24 9 13 1019.0 1015.9 0.2
19/07:00am 2.6 -3.1 -1.0 77 1.5 NW 19 24 10 13 1019.0 1015.9 0.2
19/06:30am 2.7 -2.8 -2.0 71 1.9 NW 17 22 9 12 1018.9 1015.8 0.2
19/06:00am 2.7 -2.2 -0.6 79 1.4 WNW 15 20 8 11 1019.0 1015.9 0.2
19/05:30am 3.0 -2.9 -0.5 78 1.5 WNW 20 24 11 13 1019.0 1015.9 0.2
19/05:00am 3.1 -2.7 -1.3 73 1.8 WNW 19 24 10 13 1018.9 1015.8 0.2
19/04:30am 3.2 -2.5 0.3 81 1.2 WNW 20 24 11 13 1018.9 1015.8 0.2
19/04:00am 3.1 -1.9 1.3 88 0.8 WNW 17 22 9 12 1019.0 1015.9 0.2
19/03:30am 3.0 -1.1 2.0 93 0.4 NW 13 17 7 9 1019.2 1016.0 0.2
19/03:00am 3.4 -1.2 1.6 88 0.8 NW 15 19 8 10 1019.5 1016.4 0.2
19/02:30am 3.9 -1.0 1.8 86 0.9 NW 17 20 9 11 1019.9 1016.7 0.2
19/02:00am 4.4 -0.8 -0.2 72 1.9 WNW 17 19 9 10 1020.2 1017.1 0.2
19/01:30am 4.3 0.1 1.8 84 1.1 NW 13 17 7 9 1020.6 1017.5 0.2
19/01:00am 4.6 0.4 1.5 80 1.4 NW 13 17 7 9 1020.7 1017.6 0.2
19/12:30am 4.5 -0.3 -0.1 72 2.0 NW 15 17 8 9 1020.8 1017.7 0.2
19/12:00am 4.2 -0.5 1.2 81 1.3 NW 15 19 8 10 1020.9 1017.9 0.2
 
Date/Time
EST
Temp
°C
App
Temp
°C
Dew
Point
°C
Rel
Hum
%
Delta-T
°C
Wind Press
QNH
hPa
Press
MSL
hPa
Rain since
9am
mm
Dir  Spd
km/h
Gust
km/h
Spd
kts
Gust
kts
18/11:30pm 4.4 0.0 0.4 75 1.7 NW 13 17 7 9 1021.2 1018.1 0.2
18/11:00pm 4.5 1.3 3.0 90 0.7 NNW 9 13 5 7 1021.3 1018.2 0.2
18/10:30pm 4.7 1.6 3.4 91 0.6 NNW 9 13 5 7 1021.4 1018.3 0.2
18/10:00pm 4.8 1.7 3.6 92 0.6 NNW 9 13 5 7 1021.5 1018.5 0.2
18/09:30pm 4.6 1.1 3.6 93 0.5 N 11 11 6 6 1021.7 1018.6 0.2
18/09:00pm 4.2 1.7 3.5 95 0.3 NNE 6 7 3 4 1021.8 1018.7 0.2
18/08:30pm 4.4 2.3 4.0 97 0.2 NNE 4 6 2 3 1021.8 1018.7 0.2
18/08:00pm 4.0 2.2 3.6 97 0.2 SE 2 7 1 4 1021.9 1018.8 0.2
18/07:30pm 3.6 2.2 3.3 98 0.1 CALM 0 0 0 0 1021.9 1018.8 0.2
18/07:00pm 3.8 1.6 3.4 97 0.2 NW 4 6 2 3 1021.8 1018.7 0.2
18/06:30pm 3.8 1.6 3.5 98 0.1 NW 4 6 2 3 1021.8 1018.7 0.2
18/06:00pm 4.0 1.3 3.6 97 0.2 WNW 7 9 4 5 1021.4 1018.3 0.2
18/05:30pm 4.5 1.8 3.9 96 0.3 WNW 7 11 4 6 1021.4 1018.3 0.2
18/05:00pm 5.7 3.3 4.3 91 0.7 WNW 6 7 3 4 1021.2 1018.1 0.2
18/04:30pm 6.4 3.9 4.6 88 0.9 NW 7 11 4 6 1021.3 1018.2 0.2
18/04:00pm 6.1 3.2 4.4 89 0.8 NW 9 13 5 7 1021.4 1018.3 0.2
18/03:30pm 6.2 3.3 4.5 89 0.8 NNW 9 13 5 7 1021.4 1018.3 0.2
18/03:00pm 6.1 2.8 4.3 88 0.9 NNW 11 17 6 9 1021.3 1018.2 0.2
18/02:30pm 6.2 2.9 4.4 88 0.9 N 11 17 6 9 1021.4 1018.3 0.2
18/02:00pm 6.5 2.8 4.5 87 1.0 NNW 13 20 7 11 1021.4 1018.3 0.2
18/01:30pm 6.7 2.5 4.0 83 1.3 N 15 22 8 12 1021.5 1018.5 0.2
18/01:00pm 8.2 4.1 4.2 76 1.9 N 15 22 8 12 1021.8 1018.7 0.2
18/12:30pm 8.2 5.2 4.0 75 2.0 NW 9 17 5 9 1022.3 1019.2 0.2
18/12:00pm 8.6 4.9 4.6 76 2.0 N 13 20 7 11 1022.4 1019.3 0.0
18/11:30am 8.2 4.5 4.2 76 1.9 N 13 22 7 12 1022.6 1019.6 0.0
18/11:00am 8.0 4.6 4.0 76 1.9 NNW 11 17 6 9 1022.8 1019.8 0.0
18/10:30am 7.1 3.2 3.3 77 1.8 N 13 19 7 10 1022.7 1019.7 0.0
18/10:00am 6.1 2.9 2.9 80 1.5 N 9 15 5 8 1022.7 1019.7 0.0
18/09:30am 6.5 3.7 1.8 72 2.1 NW 6 9 3 5 1022.8 1019.8 0.0
18/09:00am 5.4 2.5 1.7 77 1.7 NW 6 9 3 5 1022.8 1019.8 0.0
18/08:30am 4.4 1.5 2.4 87 0.9 N 7 11 4 6 1022.8 1019.8 0.0
18/08:00am 3.4 0.4 1.8 89 0.7 NW 7 11 4 6 1022.7 1019.7 0.0
18/07:30am 2.5 -0.4 1.3 92 0.5 NW 6 9 3 5 1022.5 1019.5 0.0
18/07:00am 1.8 -1.2 1.1 95 0.3 NW 6 7 3 4 1022.3 1019.2 0.0
18/06:30am 1.5 -1.7 0.6 94 0.4 NW 7 7 4 4 1022.3 1019.2 0.0
18/06:00am 1.8 -1.4 0.6 92 0.5 NW 7 9 4 5 1022.1 1019.1 0.0
18/05:30am 1.6 -1.4 0.6 93 0.4 NW 6 9 3 5 1022.0 1019.0 0.0
18/05:00am 2.1 -1.0 0.3 88 0.8 WNW 6 11 3 6 1021.9 1018.8 0.0
18/04:30am 2.3 -1.0 0.4 87 0.8 NNW 7 11 4 6 1021.9 1018.8 0.0
18/04:00am 2.2 -0.5 0.1 86 0.9 NNW 4 7 2 4 1022.0 1019.0 0.0
18/03:30am 2.5 -0.9 -2.2 71 1.9 N 6 13 3 7 1021.8 1018.7 0.0
18/03:00am 3.3 -0.3 -2.0 68 2.1 NW 7 15 4 8 1021.9 1018.8 0.0
18/02:30am 2.9 -0.9 -1.1 75 1.6 NNW 9 9 5 5 1022.1 1019.1 0.0
18/02:00am 2.8 -1.0 -0.8 77 1.5 NW 9 11 5 6 1022.6 1019.6 0.0
18/01:30am 3.1 -1.2 -1.8 70 2.0 NW 11 13 6 7 1022.8 1019.8 0.0
18/01:00am 3.2 -1.0 -3.8 60 2.7 WNW 9 11 5 6 1023.1 1020.1 0.0
18/12:30am 3.6 -0.4 -6.1 49 3.5 WNW 7 9 4 5 1023.3 1020.3 0.0
18/12:00am 3.8 -0.3 -6.7 46 3.7 WNW 7 9 4 5 1023.4 1020.4 0.0
 
Date/Time
EST
Temp
°C
App
Temp
°C
Dew
Point
°C
Rel
Hum
%
Delta-T
°C
Wind Press
QNH
hPa
Press
MSL
hPa
Rain since
9am
mm
Dir  Spd
km/h
Gust
km/h
Spd
kts
Gust
kts
17/11:30pm 3.3 -0.2 -6.4 49 3.7 NW 4 6 2 3 1023.6 1020.6 0.0
17/11:00pm 3.1 -0.1 -3.9 60 2.7 NW 4 6 2 3 1023.7 1020.7 0.0
17/10:30pm 3.3 0.6 0.2 80 1.3 NNW 4 6 2 3 1023.8 1020.8 0.0
17/10:00pm 3.2 0.7 -0.8 75 1.6 NW 2 4 1 2 1024.0 1021.1 0.0
17/09:30pm 2.9 0.4 1.7 92 0.5 NNW 4 6 2 3 1024.0 1021.1 0.0
17/09:00pm 2.9 0.1 2.2 95 0.3 N 6 7 3 4 1024.0 1021.1 0.0
17/08:30pm 2.6 -0.2 1.9 95 0.3 N 6 7 3 4 1024.0 1021.1 0.0
17/08:00pm 2.1 0.0 1.7 97 0.2 WNW 2 4 1 2 1024.0 1021.1 0.0
17/07:30pm 2.4 0.7 2.0 97 0.2 CALM 0 6 0 3 1024.2 1021.2 0.0
17/07:00pm 3.5 1.1 2.0 90 0.7 NW 4 6 2 3 1023.8 1020.8 0.0
17/06:30pm 3.9 2.1 3.2 95 0.3 N 2 6 1 3 1023.8 1020.8 0.0
17/06:00pm 4.5 2.2 3.0 90 0.7 N 4 7 2 4 1023.6 1020.6 0.0
17/05:30pm 5.5 3.3 3.2 85 1.1 WNW 4 6 2 3 1023.2 1020.2 0.0
17/05:00pm 6.4 4.3 3.9 84 1.2 SSW 4 9 2 5 1023.0 1020.0 0.0
17/04:30pm 7.0 4.4 3.3 77 1.7 NNW 6 13 3 7 1023.0 1020.0 0.0
17/04:00pm 6.5 3.7 3.1 79 1.6 N 7 11 4 6 1022.8 1019.8 0.0
17/03:30pm 6.6 3.4 3.2 79 1.6 N 9 15 5 8 1022.6 1019.6 0.0
17/03:00pm 7.1 3.6 3.5 78 1.7 N 11 19 6 10 1022.6 1019.6 0.0
17/02:30pm 7.5 3.2 3.2 74 2.0 N 15 22 8 12 1022.5 1019.5 0.0
17/02:00pm 7.6 3.0 3.6 76 1.9 N 17 24 9 13 1022.4 1019.3 0.0
17/01:30pm 7.8 3.9 3.3 73 2.1 NW 13 20 7 11 1022.5 1019.5 0.0
17/01:00pm 8.4 4.4 3.1 69 2.5 NW 13 20 7 11 1022.7 1019.7 0.0
17/12:30pm 7.4 4.1 2.7 72 2.2 NW 9 20 5 11 1023.0 1020.0 0.0
17/12:00pm 6.9 3.2 2.2 72 2.2 NNW 11 22 6 12 1023.4 1020.4 0.0
17/11:30am 6.8 2.8 2.9 76 1.8 N 13 22 7 12 1023.6 1020.6 0.0
17/11:00am 6.2 2.1 2.5 77 1.7 N 13 19 7 10 1023.7 1020.7 0.0
17/10:30am 5.8 2.5 2.4 79 1.6 NNW 9 15 5 8 1023.8 1020.8 0.0
17/10:00am 5.4 2.1 2.2 80 1.4 NNW 9 17 5 9 1023.7 1020.7 0.0
17/09:30am 4.7 0.6 2.1 83 1.2 N 13 20 7 11 1023.8 1020.8 0.0
17/09:00am 4.2 0.4 1.6 83 1.1 N 11 17 6 9 1023.7 1020.7 0.2
17/08:30am 3.6 -0.1 0.1 78 1.5 NNW 9 13 5 7 1023.4 1020.4 0.2
17/08:00am 2.8 -1.1 1.2 89 0.7 NW 11 19 6 10 1023.3 1020.3 0.2
17/07:30am 2.0 -2.3 0.8 92 0.5 NNW 13 19 7 10 1023.2 1020.2 0.2
17/07:00am 1.3 -3.8 0.6 95 0.3 NW 17 20 9 11 1023.1 1020.1 0.2
17/06:30am 1.5 -3.6 0.6 94 0.4 NW 17 22 9 12 1023.0 1020.0 0.2
17/06:00am 1.7 -3.8 0.5 92 0.5 NNW 19 24 10 13 1023.0 1020.0 0.2
17/05:30am 1.9 -3.6 0.7 92 0.5 NNW 19 26 10 14 1022.8 1019.8 0.2
17/05:00am 2.1 -3.9 0.8 91 0.6 NNW 22 28 12 15 1022.7 1019.7 0.2
17/04:30am 2.2 -3.9 0.3 87 0.8 NNW 22 28 12 15 1022.6 1019.6 0.2
17/04:00am 2.5 -4.4 0.1 84 1.0 NNW 26 35 14 19 1022.5 1019.5 0.2
17/03:30am 2.7 -4.2 -0.1 82 1.2 NNW 26 33 14 18 1022.5 1019.5 0.2
17/03:00am 3.1 -4.3 -0.4 78 1.5 NNW 28 37 15 20 1022.5 1019.5 0.2
17/02:30am 3.0 -4.0 -0.3 79 1.4 NNW 26 33 14 18 1022.6 1019.6 0.2
17/02:00am 2.9 -3.7 -0.5 78 1.4 NNW 24 32 13 17 1022.8 1019.8 0.2
17/01:30am 2.9 -2.9 -0.4 79 1.4 NNW 20 28 11 15 1023.0 1020.0 0.2
17/01:00am 2.7 -3.0 0.6 86 0.9 NW 20 26 11 14 1023.1 1020.1 0.0
17/12:30am 2.6 -2.5 0.5 86 0.9 NW 17 20 9 11 1023.2 1020.2 0.0
17/12:00am 3.0 -1.8 -2.3 68 2.1 NW 13 17 7 9 1023.2 1020.2 0.0
 
Date/Time
EST
Temp
°C
App
Temp
°C
Dew
Point
°C
Rel
Hum
%
Delta-T
°C
Wind Press
QNH
hPa
Press
MSL
hPa
Rain since
9am
mm
Dir  Spd
km/h
Gust
km/h
Spd
kts
Gust
kts
16/11:30pm 3.4 -1.8 -2.5 65 2.3 NNW 15 17 8 9 1023.4 1020.4 0.0
16/11:00pm 3.3 -0.5 -0.9 74 1.7 NNW 9 13 5 7 1023.6 1020.6 0.0
16/10:30pm 2.9 -0.6 1.3 89 0.7 NW 9 13 5 7 1023.7 1020.7 0.0
16/10:00pm 2.7 -1.5 1.7 93 0.4 NNW 13 15 7 8 1023.8 1020.8 0.0
16/09:30pm 2.7 -1.1 1.5 92 0.5 NW 11 13 6 7 1023.8 1020.8 0.0
16/09:00pm 2.7 -1.6 0.8 87 0.8 NNW 13 15 7 8 1023.9 1020.9 0.0
16/08:30pm 3.2 0.3 1.4 88 0.8 NNW 6 9 3 5 1023.8 1020.8 0.0
16/08:00pm 3.7 2.1 2.4 91 0.6 CALM 0 4 0 2 1023.7 1020.7 0.0
16/07:30pm 3.4 0.9 1.8 89 0.7 NW 4 6 2 3 1023.7 1020.7 0.0
16/07:00pm 3.8 2.2 2.2 89 0.7 CALM 0 0 0 0 1023.4 1020.4 0.0
16/06:30pm 4.3 2.3 2.2 86 0.9 WNW 2 4 1 2 1023.3 1020.3 0.0
16/06:00pm 4.6 1.8 2.3 85 1.0 W 6 7 3 4 1023.1 1020.1 0.0
16/05:30pm 5.6 3.3 2.6 81 1.4 WNW 4 7 2 4 1022.8 1019.8 0.0
16/05:00pm 5.9 3.2 2.7 80 1.5 NNW 6 9 3 5 1022.8 1019.8 0.0
16/04:30pm 7.8 5.1 3.5 74 2.1 NW 7 13 4 7 1022.7 1019.7 0.0
16/04:00pm 7.8 4.7 3.5 74 2.0 NNW 9 13 5 7 1022.6 1019.6 0.0
16/03:30pm 8.9 5.9 3.9 71 2.4 NW 9 19 5 10 1022.5 1019.5 0.0
16/03:00pm 8.8 5.4 4.0 72 2.3 NW 11 19 6 10 1022.3 1019.2 0.0
16/02:30pm 7.7 4.2 3.6 75 2.0 N 11 17 6 9 1022.3 1019.2 0.0
16/02:00pm 8.5 4.6 3.4 70 2.4 N 13 20 7 11 1022.1 1019.1 0.0
16/01:30pm 8.4 4.9 3.5 71 2.3 N 11 22 6 12 1022.1 1019.1 0.0
16/01:00pm 8.3 4.7 3.0 69 2.5 N 11 19 6 10 1022.0 1019.0 0.0
16/12:30pm 8.0 4.2 2.0 66 2.8 N 11 17 6 9 1022.4 1019.3 0.0
16/12:00pm 7.5 4.7 2.0 68 2.5 NE 6 13 3 7 1022.6 1019.6 0.0
16/11:30am 5.9 2.8 0.3 67 2.4 SE 6 11 3 6 1022.5 1019.5 0.0
16/11:00am 4.4 1.4 0.6 76 1.6 SSE 6 9 3 5 1022.4 1019.3 0.0
16/10:30am 4.0 0.9 0.0 75 1.7 SE 6 11 3 6 1022.3 1019.2 0.0
16/10:00am 2.9 -1.1 0.5 84 1.0 SE 11 17 6 9 1021.9 1018.8 0.0
16/09:30am 1.9 -2.9 0.1 88 0.7 SSE 15 19 8 10 1021.5 1018.5 0.0
16/09:00am 0.6 -5.2 -0.4 93 0.4 SSE 20 24 11 13 1021.2 1018.1 0.2

Other formats

Comma delimited format used in spreadsheet applications
http://www.bom.gov.au/fwo/IDV60801/IDV60801.94903.axf

JavaScript Object Notation format (JSON) in row-major order
http://www.bom.gov.au/fwo/IDV60801/IDV60801.94903.json

Data quality

Most of these data are generated automatically and are frequently updated. Quality checks on data are not normally performed. It is possible for incorrect values to appear. Refer to information at About Latest Weather Observations and please check the disclaimer before using these data.